Longhope, United Kingdom
Current Conditions -  °F | °C
As of 3:50 PM on Thursday 23 Oct 2014 (Local Time) from EGBJ Reporting Station
Rain Showers Rain Showers  
Wind Chill: 61°   Ceiling: 900
Heat Index: 61°   Visibility: 6mi
Dew Point: 57°   Wind: 10mph
Humidity: 88%   Direction: 190°S
Pressure: 30"   Gusts: NA
Location:  51.86°N, 2.45°W
Report Text: EGBJ 231450Z 19009KT 160V230 9999 4000S -SHRA FEW006 BKN009 16/14 Q1016
Loading
Personal Weather Stations






























Interactive Weather Map
Tropical Storm Tracking
New forecast layout! Learn more

10-Day Weather Forecast

Advertisements
Track Severe Weather on mobile